Nyk Deneb — 3EOF8 — position and weather

sailwx.info

Track history (hours):
 
Tides and Currents Weather Stations Pressure Air Temp Water Temp Dewpoint Dewpoint Depression Visibility Wind Speed Wind Dir Waves Ship Positions

Nyk Deneb

Last reported at 2016-Aug-27 16:31 UTC. Time now 2016-Aug-27 16:56 UTC.
Position N 37°48' W 122°19'.

Length 294 m; draft 10.1 m.

Type: Ship (hazmat cat B). MMSI: 355717000.

Date/timePositionNaut miles runAvg speedWind from/ knotsBaromVisibWave heightAir tempDewpointWater temp
2016-Aug-27 16:31N 37°48' W 122°19'0 0.0
2016-Aug-27 15:33N 37°48' W 122°19'0 0.0
2016-Aug-27 14:34N 37°48' W 122°19'1 1.3
2016-Aug-27 13:34N 37°48' W 122°21'9 8.9
2016-Aug-27 12:34N 37°48' W 122°32'1111.3
2016-Aug-27 11:33N 37°47' W 122°46'9 8.8
2016-Aug-27 10:33N 37°50' W 122°56'10 9.9
2016-Aug-27 09:33N 37°55' W 123°07'1413.5
2016-Aug-27 08:33N 38°05' W 123°19'1514.8
2016-Aug-27 07:34N 38°12' W 123°35'1515.2
2016-Aug-27 06:34N 38°22' W 123°51'3015.2
2016-Aug-27 04:34N 38°45' W 124°15'1515.3
2016-Aug-27 03:33N 38°59' W 124°22'14716.3
2016-Aug-26 18:32N 41°21' W 125°12'7718.7
2016-Aug-26 14:24N 42°39' W 125°14'1619.3
2016-Aug-26 13:34N 42°55' W 125°15'1919.4
2016-Aug-26 12:34N 43°14' W 125°16'1919.4
2016-Aug-26 11:34N 43°34' W 125°16'2020.2
2016-Aug-26 10:33N 43°54' W 125°17'2020.3
2016-Aug-26 09:34N 44°14' W 125°17'2020.0
2016-Aug-26 08:34N 44°34' W 125°18'2020.0
2016-Aug-26 07:34N 44°54' W 125°18'2019.7
2016-Aug-26 06:33N 45°14' W 125°19'4019.8
2016-Aug-26 04:34N 45°53' W 125°20'2020.0
2016-Aug-26 03:33N 46°13' W 125°20'2020.3
2016-Aug-26 02:33N 46°34' W 125°21'2020.1
2016-Aug-26 01:34N 46°54' W 125°21'2120.5
2016-Aug-26 00:33N 47°14' W 125°22'2120.7
2016-Aug-25 23:34N 47°35' W 125°22'2120.9
2016-Aug-25 22:34N 47°56' W 125°22'2120.7
2016-Aug-25 21:33N 48°17' W 125°19'2020.6
2016-Aug-25 20:33N 48°31' W 124°57'2020.5
2016-Aug-25 19:34N 48°26' W 124°28'2121.3
2016-Aug-25 18:33N 48°18' W 123°58'2020.3
2016-Aug-25 17:33N 48°14' W 123°28'1110.9
2016-Aug-25 16:34N 48°12' W 123°12'1717.0
2016-Aug-25 15:33N 48°11' W 122°47'1514.9
2016-Aug-25 14:34N 47°59' W 122°35'1616.2
2016-Aug-25 13:34N 47°43' W 122°26'1817.6
2016-Aug-25 12:34N 47°26' W 122°23'9 9.0
2016-Aug-25 11:33N 47°17' W 122°25'2 1.6
2016-Aug-25 10:33N 47°16' W 122°24'0 0.0
2016-Aug-25 09:33N 47°16' W 122°24'1 0.1
2016-Aug-24 13:33N 47°17' W 122°25'7 7.1
2016-Aug-24 12:33N 47°23' W 122°22'1717.5
2016-Aug-24 11:33N 47°40' W 122°28'1615.8
2016-Aug-24 10:33N 47°56' W 122°31'1413.8
2016-Aug-24 09:33N 48°08' W 122°42'1514.9
2016-Aug-24 08:34N 48°12' W 123°04'1413.6
2016-Aug-24 07:33N 48°10' W 123°24'1010.1
2016-Aug-24 06:33N 48°20' W 123°27'3015.0
2016-Aug-24 04:33N 48°46' W 123°04'1616.2
2016-Aug-24 03:34N 48°59' W 123°17'1817.8
2016-Aug-24 02:34N 49°17' W 123°19'9 8.4
2016-Aug-24 01:31N 49°17' W 123°06'0 0.1
2016-Aug-24 00:31N 49°17' W 123°06'0 0.0
2016-Aug-23 23:31N 49°17' W 123°06'0 0.0
2016-Aug-23 22:31N 49°17' W 123°06'0 0.0
2016-Aug-23 21:31N 49°17' W 123°06'0 0.0
2016-Aug-23 20:31N 49°17' W 123°06'0 0.0
2016-Aug-23 19:31N 49°17' W 123°06'0 0.0
2016-Aug-23 18:31N 49°17' W 123°06'0 0.0
2016-Aug-23 17:31N 49°17' W 123°06'0 0.0
2016-Aug-23 16:31N 49°17' W 123°06'0 0.0
2016-Aug-23 15:31N 49°17' W 123°06'0 0.0
2016-Aug-23 14:28N 49°17' W 123°06'2 1.6
2016-Aug-23 13:33N 49°19' W 123°08'1312.9
2016-Aug-23 12:34N 49°09' W 123°20'1818.1
2016-Aug-23 11:34N 48°54' W 123°05'1313.5
2016-Aug-23 10:34N 48°42' W 123°14'1716.8
2016-Aug-23 09:34N 48°25' W 123°11'1212.2
2016-Aug-23 08:33N 48°18' W 123°25'10 9.7
2016-Aug-23 07:33N 48°13' W 123°38'1312.7
2016-Aug-23 06:33N 48°14' W 123°57'1313.2
2016-Aug-23 05:33N 48°19' W 124°15'1313.3
2016-Aug-23 04:33N 48°25' W 124°33'1313.0
2016-Aug-23 03:33N 48°28' W 124°52'1414.1
2016-Aug-23 02:33N 48°29' W 125°14'1615.9
2016-Aug-23 01:33N 48°28' W 125°38'1615.9
2016-Aug-23 00:33N 48°29' W 126°02'1615.6
2016-Aug-22 23:33N 48°28' W 126°25'1515.4
2016-Aug-22 22:33N 48°28' W 126°48'1615.8
2016-Aug-22 21:33N 48°29' W 127°12'7 7.5
2016-Aug-22 20:33N 48°29' W 127°24'  
Track history (hours):
 
Tides and Currents Weather Stations Pressure Air Temp Water Temp Dewpoint Dewpoint Depression Visibility Wind Speed Wind Dir Waves Ship Positions

Nyk Deneb

Last reported at 2016-Aug-27 16:31 UTC. Time now 2016-Aug-27 16:56 UTC.
Position N 37°48' W 122°19'.

Length 294 m; draft 10.1 m.

Type: Ship (hazmat cat B). MMSI: 355717000.

Date/timePositionNaut miles runAvg speedWind from/ knotsBaromVisibWave heightAir tempDewpointWater temp
2016-Aug-27 16:31N 37°48' W 122°19'0 0.0
2016-Aug-27 15:33N 37°48' W 122°19'0 0.0
2016-Aug-27 14:34N 37°48' W 122°19'1 1.3
2016-Aug-27 13:34N 37°48' W 122°21'9 8.9
2016-Aug-27 12:34N 37°48' W 122°32'1111.3
2016-Aug-27 11:33N 37°47' W 122°46'9 8.8
2016-Aug-27 10:33N 37°50' W 122°56'10 9.9
2016-Aug-27 09:33N 37°55' W 123°07'1413.5
2016-Aug-27 08:33N 38°05' W 123°19'1514.8
2016-Aug-27 07:34N 38°12' W 123°35'1515.2
2016-Aug-27 06:34N 38°22' W 123°51'3015.2
2016-Aug-27 04:34N 38°45' W 124°15'1515.3
2016-Aug-27 03:33N 38°59' W 124°22'14716.3
2016-Aug-26 18:32N 41°21' W 125°12'7718.7
2016-Aug-26 14:24N 42°39' W 125°14'1619.3
2016-Aug-26 13:34N 42°55' W 125°15'1919.4
2016-Aug-26 12:34N 43°14' W 125°16'1919.4
2016-Aug-26 11:34N 43°34' W 125°16'2020.2
2016-Aug-26 10:33N 43°54' W 125°17'2020.3
2016-Aug-26 09:34N 44°14' W 125°17'2020.0
2016-Aug-26 08:34N 44°34' W 125°18'2020.0
2016-Aug-26 07:34N 44°54' W 125°18'2019.7
2016-Aug-26 06:33N 45°14' W 125°19'4019.8
2016-Aug-26 04:34N 45°53' W 125°20'2020.0
2016-Aug-26 03:33N 46°13' W 125°20'2020.3
2016-Aug-26 02:33N 46°34' W 125°21'2020.1
2016-Aug-26 01:34N 46°54' W 125°21'2120.5
2016-Aug-26 00:33N 47°14' W 125°22'2120.7
2016-Aug-25 23:34N 47°35' W 125°22'2120.9
2016-Aug-25 22:34N 47°56' W 125°22'2120.7
2016-Aug-25 21:33N 48°17' W 125°19'2020.6
2016-Aug-25 20:33N 48°31' W 124°57'2020.5
2016-Aug-25 19:34N 48°26' W 124°28'2121.3
2016-Aug-25 18:33N 48°18' W 123°58'2020.3
2016-Aug-25 17:33N 48°14' W 123°28'1110.9
2016-Aug-25 16:34N 48°12' W 123°12'1717.0
2016-Aug-25 15:33N 48°11' W 122°47'1514.9
2016-Aug-25 14:34N 47°59' W 122°35'1616.2
2016-Aug-25 13:34N 47°43' W 122°26'1817.6
2016-Aug-25 12:34N 47°26' W 122°23'9 9.0
2016-Aug-25 11:33N 47°17' W 122°25'2 1.6
2016-Aug-25 10:33N 47°16' W 122°24'0 0.0
2016-Aug-25 09:33N 47°16' W 122°24'1 0.1
2016-Aug-24 13:33N 47°17' W 122°25'7 7.1
2016-Aug-24 12:33N 47°23' W 122°22'1717.5
2016-Aug-24 11:33N 47°40' W 122°28'1615.8
2016-Aug-24 10:33N 47°56' W 122°31'1413.8
2016-Aug-24 09:33N 48°08' W 122°42'1514.9
2016-Aug-24 08:34N 48°12' W 123°04'1413.6
2016-Aug-24 07:33N 48°10' W 123°24'1010.1
2016-Aug-24 06:33N 48°20' W 123°27'3015.0
2016-Aug-24 04:33N 48°46' W 123°04'1616.2
2016-Aug-24 03:34N 48°59' W 123°17'1817.8
2016-Aug-24 02:34N 49°17' W 123°19'9 8.4
2016-Aug-24 01:31N 49°17' W 123°06'0 0.1
2016-Aug-24 00:31N 49°17' W 123°06'0 0.0
2016-Aug-23 23:31N 49°17' W 123°06'0 0.0
2016-Aug-23 22:31N 49°17' W 123°06'0 0.0
2016-Aug-23 21:31N 49°17' W 123°06'0 0.0
2016-Aug-23 20:31N 49°17' W 123°06'0 0.0
2016-Aug-23 19:31N 49°17' W 123°06'0 0.0
2016-Aug-23 18:31N 49°17' W 123°06'0 0.0
2016-Aug-23 17:31N 49°17' W 123°06'0 0.0
2016-Aug-23 16:31N 49°17' W 123°06'0 0.0
2016-Aug-23 15:31N 49°17' W 123°06'0 0.0
2016-Aug-23 14:28N 49°17' W 123°06'2 1.6
2016-Aug-23 13:33N 49°19' W 123°08'1312.9
2016-Aug-23 12:34N 49°09' W 123°20'1818.1
2016-Aug-23 11:34N 48°54' W 123°05'1313.5
2016-Aug-23 10:34N 48°42' W 123°14'1716.8
2016-Aug-23 09:34N 48°25' W 123°11'1212.2
2016-Aug-23 08:33N 48°18' W 123°25'10 9.7
2016-Aug-23 07:33N 48°13' W 123°38'1312.7
2016-Aug-23 06:33N 48°14' W 123°57'1313.2
2016-Aug-23 05:33N 48°19' W 124°15'1313.3
2016-Aug-23 04:33N 48°25' W 124°33'1313.0
2016-Aug-23 03:33N 48°28' W 124°52'1414.1
2016-Aug-23 02:33N 48°29' W 125°14'1615.9
2016-Aug-23 01:33N 48°28' W 125°38'1615.9
2016-Aug-23 00:33N 48°29' W 126°02'1615.6
2016-Aug-22 23:33N 48°28' W 126°25'1515.4
2016-Aug-22 22:33N 48°28' W 126°48'1615.8
2016-Aug-22 21:33N 48°29' W 127°12'7 7.5
2016-Aug-22 20:33N 48°29' W 127°24'  

Dump ship's entire track history